sensor_id;sensor_type;location;lat;lon;timestamp;P1;durP1;ratioP1;P2;durP2;ratioP2
11422;SDS011;5768;51.476;7.210;2023-08-07T00:01:27;5.13;;;3.75;;
11422;SDS011;5768;51.476;7.210;2023-08-07T00:06:32;2.25;;;2.03;;
11422;SDS011;5768;51.476;7.210;2023-08-07T00:11:36;5.03;;;4.32;;
11422;SDS011;5768;51.476;7.210;2023-08-07T00:16:38;6.10;;;4.38;;
11422;SDS011;5768;51.476;7.210;2023-08-07T00:21:43;4.28;;;3.05;;
11422;SDS011;5768;51.476;7.210;2023-08-07T00:26:46;4.55;;;3.78;;
11422;SDS011;5768;51.476;7.210;2023-08-07T00:31:49;3.63;;;2.47;;
11422;SDS011;5768;51.476;7.210;2023-08-07T00:36:51;6.28;;;2.55;;
11422;SDS011;5768;51.476;7.210;2023-08-07T00:41:55;1.60;;;1.50;;
11422;SDS011;5768;51.476;7.210;2023-08-07T00:46:57;5.20;;;2.33;;
11422;SDS011;5768;51.476;7.210;2023-08-07T00:52:00;5.82;;;3.10;;
11422;SDS011;5768;51.476;7.210;2023-08-07T00:57:07;6.07;;;3.20;;
11422;SDS011;5768;51.476;7.210;2023-08-07T01:02:15;4.70;;;2.75;;
11422;SDS011;5768;51.476;7.210;2023-08-07T01:07:18;4.75;;;2.80;;
11422;SDS011;5768;51.476;7.210;2023-08-07T01:12:22;5.22;;;3.58;;
11422;SDS011;5768;51.476;7.210;2023-08-07T01:17:31;5.30;;;3.88;;
11422;SDS011;5768;51.476;7.210;2023-08-07T01:22:36;4.35;;;3.78;;
11422;SDS011;5768;51.476;7.210;2023-08-07T01:27:41;3.25;;;2.25;;
11422;SDS011;5768;51.476;7.210;2023-08-07T01:32:57;6.60;;;4.47;;
11422;SDS011;5768;51.476;7.210;2023-08-07T01:38:12;4.97;;;3.25;;
11422;SDS011;5768;51.476;7.210;2023-08-07T01:43:16;6.28;;;3.15;;
11422;SDS011;5768;51.476;7.210;2023-08-07T01:48:20;6.13;;;4.03;;
11422;SDS011;5768;51.476;7.210;2023-08-07T01:53:23;6.43;;;5.07;;
11422;SDS011;5768;51.476;7.210;2023-08-07T01:58:26;8.20;;;5.18;;
11422;SDS011;5768;51.476;7.210;2023-08-07T02:03:28;6.68;;;5.55;;
11422;SDS011;5768;51.476;7.210;2023-08-07T02:08:32;8.65;;;5.18;;
11422;SDS011;5768;51.476;7.210;2023-08-07T02:13:34;7.63;;;4.43;;
11422;SDS011;5768;51.476;7.210;2023-08-07T02:18:37;5.93;;;4.20;;
11422;SDS011;5768;51.476;7.210;2023-08-07T02:23:40;6.30;;;3.78;;
11422;SDS011;5768;51.476;7.210;2023-08-07T02:28:43;5.13;;;3.97;;
11422;SDS011;5768;51.476;7.210;2023-08-07T02:33:45;6.80;;;3.92;;
11422;SDS011;5768;51.476;7.210;2023-08-07T02:38:49;4.63;;;3.25;;
11422;SDS011;5768;51.476;7.210;2023-08-07T02:43:51;4.25;;;2.83;;
11422;SDS011;5768;51.476;7.210;2023-08-07T02:48:53;4.05;;;2.45;;
11422;SDS011;5768;51.476;7.210;2023-08-07T02:53:57;1.92;;;1.55;;
11422;SDS011;5768;51.476;7.210;2023-08-07T02:58:59;1.65;;;1.52;;
11422;SDS011;5768;51.476;7.210;2023-08-07T03:04:02;2.90;;;2.17;;
11422;SDS011;5768;51.476;7.210;2023-08-07T03:09:06;3.17;;;1.60;;
11422;SDS011;5768;51.476;7.210;2023-08-07T03:14:08;4.72;;;1.85;;
11422;SDS011;5768;51.476;7.210;2023-08-07T03:19:11;3.75;;;2.05;;
11422;SDS011;5768;51.476;7.210;2023-08-07T03:24:14;5.78;;;2.47;;
11422;SDS011;5768;51.476;7.210;2023-08-07T03:29:17;3.17;;;1.70;;
11422;SDS011;5768;51.476;7.210;2023-08-07T03:34:20;1.90;;;1.52;;
11422;SDS011;5768;51.476;7.210;2023-08-07T03:39:23;2.30;;;1.75;;
11422;SDS011;5768;51.476;7.210;2023-08-07T03:44:26;1.95;;;1.17;;
11422;SDS011;5768;51.476;7.210;2023-08-07T03:49:28;5.68;;;3.10;;
11422;SDS011;5768;51.476;7.210;2023-08-07T03:54:31;6.13;;;3.72;;
11422;SDS011;5768;51.476;7.210;2023-08-07T03:59:34;9.05;;;4.38;;
11422;SDS011;5768;51.476;7.210;2023-08-07T04:04:36;5.93;;;3.88;;
11422;SDS011;5768;51.476;7.210;2023-08-07T04:09:40;9.27;;;4.13;;
11422;SDS011;5768;51.476;7.210;2023-08-07T04:14:42;6.78;;;3.78;;
11422;SDS011;5768;51.476;7.210;2023-08-07T04:19:44;10.82;;;5.78;;
11422;SDS011;5768;51.476;7.210;2023-08-07T04:24:48;9.85;;;5.57;;
11422;SDS011;5768;51.476;7.210;2023-08-07T04:29:50;7.95;;;5.65;;
11422;SDS011;5768;51.476;7.210;2023-08-07T04:34:52;10.15;;;5.30;;
11422;SDS011;5768;51.476;7.210;2023-08-07T04:39:56;10.02;;;6.18;;
11422;SDS011;5768;51.476;7.210;2023-08-07T04:45:00;11.70;;;6.65;;
11422;SDS011;5768;51.476;7.210;2023-08-07T04:50:03;10.30;;;6.07;;
11422;SDS011;5768;51.476;7.210;2023-08-07T04:55:08;9.90;;;5.15;;
11422;SDS011;5768;51.476;7.210;2023-08-07T05:00:11;7.97;;;5.18;;
11422;SDS011;5768;51.476;7.210;2023-08-07T05:05:14;7.05;;;3.60;;
11422;SDS011;5768;51.476;7.210;2023-08-07T05:10:19;8.55;;;5.22;;
11422;SDS011;5768;51.476;7.210;2023-08-07T05:15:21;12.32;;;6.78;;
11422;SDS011;5768;51.476;7.210;2023-08-07T05:20:24;11.77;;;6.47;;
11422;SDS011;5768;51.476;7.210;2023-08-07T05:25:28;10.63;;;5.38;;
11422;SDS011;5768;51.476;7.210;2023-08-07T05:30:30;11.27;;;5.88;;
11422;SDS011;5768;51.476;7.210;2023-08-07T05:35:33;6.40;;;4.20;;
11422;SDS011;5768;51.476;7.210;2023-08-07T05:40:37;11.40;;;5.00;;
11422;SDS011;5768;51.476;7.210;2023-08-07T05:45:40;6.38;;;3.20;;
11422;SDS011;5768;51.476;7.210;2023-08-07T05:50:42;6.10;;;3.58;;
11422;SDS011;5768;51.476;7.210;2023-08-07T05:55:46;7.30;;;4.47;;
11422;SDS011;5768;51.476;7.210;2023-08-07T06:00:49;6.45;;;4.05;;
11422;SDS011;5768;51.476;7.210;2023-08-07T06:05:51;6.28;;;4.53;;
11422;SDS011;5768;51.476;7.210;2023-08-07T06:10:55;5.07;;;4.13;;
11422;SDS011;5768;51.476;7.210;2023-08-07T06:15:57;4.93;;;4.13;;
11422;SDS011;5768;51.476;7.210;2023-08-07T06:20:59;11.40;;;7.28;;
11422;SDS011;5768;51.476;7.210;2023-08-07T06:26:03;5.47;;;4.53;;
11422;SDS011;5768;51.476;7.210;2023-08-07T06:31:08;9.35;;;6.45;;
11422;SDS011;5768;51.476;7.210;2023-08-07T06:36:13;8.23;;;5.95;;
11422;SDS011;5768;51.476;7.210;2023-08-07T06:41:19;6.32;;;4.95;;
11422;SDS011;5768;51.476;7.210;2023-08-07T06:46:22;6.30;;;5.22;;
11422;SDS011;5768;51.476;7.210;2023-08-07T06:51:28;10.23;;;6.50;;
11422;SDS011;5768;51.476;7.210;2023-08-07T06:56:32;6.90;;;5.03;;
11422;SDS011;5768;51.476;7.210;2023-08-07T07:01:34;5.80;;;2.67;;
11422;SDS011;5768;51.476;7.210;2023-08-07T07:06:37;6.25;;;3.63;;
11422;SDS011;5768;51.476;7.210;2023-08-07T07:11:40;5.97;;;3.97;;
11422;SDS011;5768;51.476;7.210;2023-08-07T07:16:44;5.22;;;3.40;;
11422;SDS011;5768;51.476;7.210;2023-08-07T07:21:46;7.03;;;4.60;;
11422;SDS011;5768;51.476;7.210;2023-08-07T07:26:50;7.38;;;4.57;;
11422;SDS011;5768;51.476;7.210;2023-08-07T07:31:52;5.30;;;4.22;;
11422;SDS011;5768;51.476;7.210;2023-08-07T07:36:55;6.78;;;5.20;;
11422;SDS011;5768;51.476;7.210;2023-08-07T07:41:58;7.38;;;5.53;;
11422;SDS011;5768;51.476;7.210;2023-08-07T07:47:01;6.32;;;5.60;;
11422;SDS011;5768;51.476;7.210;2023-08-07T07:52:03;7.22;;;5.10;;
11422;SDS011;5768;51.476;7.210;2023-08-07T07:57:08;5.47;;;4.00;;
11422;SDS011;5768;51.476;7.210;2023-08-07T08:02:10;8.20;;;4.75;;
11422;SDS011;5768;51.476;7.210;2023-08-07T08:07:15;6.93;;;3.92;;
11422;SDS011;5768;51.476;7.210;2023-08-07T08:12:19;3.00;;;2.70;;
11422;SDS011;5768;51.476;7.210;2023-08-07T08:17:23;1.85;;;1.50;;
11422;SDS011;5768;51.476;7.210;2023-08-07T08:22:26;5.78;;;2.90;;
11422;SDS011;5768;51.476;7.210;2023-08-07T08:27:29;5.20;;;3.10;;
11422;SDS011;5768;51.476;7.210;2023-08-07T08:32:31;4.07;;;1.90;;
11422;SDS011;5768;51.476;7.210;2023-08-07T08:37:34;3.08;;;1.83;;
11422;SDS011;5768;51.476;7.210;2023-08-07T08:42:38;2.55;;;1.70;;
11422;SDS011;5768;51.476;7.210;2023-08-07T08:47:41;3.42;;;2.33;;
11422;SDS011;5768;51.476;7.210;2023-08-07T08:52:45;4.82;;;1.83;;
11422;SDS011;5768;51.476;7.210;2023-08-07T08:57:50;4.18;;;2.35;;
11422;SDS011;5768;51.476;7.210;2023-08-07T09:02:53;7.72;;;3.30;;
11422;SDS011;5768;51.476;7.210;2023-08-07T09:07:56;7.15;;;3.30;;
11422;SDS011;5768;51.476;7.210;2023-08-07T09:13:03;7.70;;;3.45;;
11422;SDS011;5768;51.476;7.210;2023-08-07T09:18:13;7.88;;;3.65;;
11422;SDS011;5768;51.476;7.210;2023-08-07T09:23:16;9.98;;;3.80;;
11422;SDS011;5768;51.476;7.210;2023-08-07T09:28:20;4.55;;;2.88;;
11422;SDS011;5768;51.476;7.210;2023-08-07T09:33:25;4.80;;;2.83;;
11422;SDS011;5768;51.476;7.210;2023-08-07T09:38:30;6.15;;;3.13;;
11422;SDS011;5768;51.476;7.210;2023-08-07T09:43:35;5.50;;;2.80;;
11422;SDS011;5768;51.476;7.210;2023-08-07T09:48:42;8.93;;;3.50;;
11422;SDS011;5768;51.476;7.210;2023-08-07T09:53:46;7.22;;;2.60;;
11422;SDS011;5768;51.476;7.210;2023-08-07T09:58:51;6.32;;;2.60;;
11422;SDS011;5768;51.476;7.210;2023-08-07T10:03:59;4.03;;;2.60;;
11422;SDS011;5768;51.476;7.210;2023-08-07T10:09:02;7.45;;;3.78;;
11422;SDS011;5768;51.476;7.210;2023-08-07T10:14:06;6.68;;;2.83;;
11422;SDS011;5768;51.476;7.210;2023-08-07T10:19:12;6.50;;;3.05;;
11422;SDS011;5768;51.476;7.210;2023-08-07T10:24:15;5.00;;;2.92;;
11422;SDS011;5768;51.476;7.210;2023-08-07T10:29:20;7.35;;;3.45;;
11422;SDS011;5768;51.476;7.210;2023-08-07T10:34:25;8.73;;;3.70;;
11422;SDS011;5768;51.476;7.210;2023-08-07T10:39:30;6.95;;;3.47;;
11422;SDS011;5768;51.476;7.210;2023-08-07T10:44:44;3.88;;;2.40;;
11422;SDS011;5768;51.476;7.210;2023-08-07T10:49:50;8.93;;;5.38;;
11422;SDS011;5768;51.476;7.210;2023-08-07T10:54:55;6.90;;;3.20;;
11422;SDS011;5768;51.476;7.210;2023-08-07T11:00:02;6.43;;;3.08;;
11422;SDS011;5768;51.476;7.210;2023-08-07T11:05:09;4.85;;;2.53;;
11422;SDS011;5768;51.476;7.210;2023-08-07T11:10:13;7.78;;;2.45;;
11422;SDS011;5768;51.476;7.210;2023-08-07T11:15:18;7.00;;;3.10;;
11422;SDS011;5768;51.476;7.210;2023-08-07T11:20:20;5.85;;;2.70;;
11422;SDS011;5768;51.476;7.210;2023-08-07T11:25:22;6.20;;;2.72;;
11422;SDS011;5768;51.476;7.210;2023-08-07T11:30:26;4.57;;;1.80;;
11422;SDS011;5768;51.476;7.210;2023-08-07T11:35:29;4.32;;;2.40;;
11422;SDS011;5768;51.476;7.210;2023-08-07T11:40:31;8.32;;;2.15;;
11422;SDS011;5768;51.476;7.210;2023-08-07T11:45:35;4.82;;;1.80;;
11422;SDS011;5768;51.476;7.210;2023-08-07T11:50:37;3.63;;;1.95;;
11422;SDS011;5768;51.476;7.210;2023-08-07T11:55:46;6.90;;;2.30;;
11422;SDS011;5768;51.476;7.210;2023-08-07T12:00:54;7.10;;;2.38;;
11422;SDS011;5768;51.476;7.210;2023-08-07T12:05:57;3.13;;;2.00;;
11422;SDS011;5768;51.476;7.210;2023-08-07T12:11:03;5.20;;;2.38;;
11422;SDS011;5768;51.476;7.210;2023-08-07T12:16:09;5.38;;;1.80;;
11422;SDS011;5768;51.476;7.210;2023-08-07T12:21:16;4.30;;;2.22;;
11422;SDS011;5768;51.476;7.210;2023-08-07T12:26:20;6.07;;;2.03;;
11422;SDS011;5768;51.476;7.210;2023-08-07T12:31:24;3.83;;;1.95;;
11422;SDS011;5768;51.476;7.210;2023-08-07T12:36:26;4.57;;;2.05;;
11422;SDS011;5768;51.476;7.210;2023-08-07T12:41:29;7.57;;;1.70;;
11422;SDS011;5768;51.476;7.210;2023-08-07T12:46:33;2.17;;;1.60;;
11422;SDS011;5768;51.476;7.210;2023-08-07T12:51:38;3.85;;;1.80;;
11422;SDS011;5768;51.476;7.210;2023-08-07T12:56:40;4.28;;;1.70;;
11422;SDS011;5768;51.476;7.210;2023-08-07T13:01:44;5.95;;;1.90;;
11422;SDS011;5768;51.476;7.210;2023-08-07T13:06:46;4.03;;;2.00;;
11422;SDS011;5768;51.476;7.210;2023-08-07T13:11:49;4.55;;;1.67;;
11422;SDS011;5768;51.476;7.210;2023-08-07T13:16:53;2.85;;;1.73;;
11422;SDS011;5768;51.476;7.210;2023-08-07T13:21:55;2.42;;;1.65;;
11422;SDS011;5768;51.476;7.210;2023-08-07T13:26:57;3.47;;;1.80;;
11422;SDS011;5768;51.476;7.210;2023-08-07T13:32:01;5.20;;;2.05;;
11422;SDS011;5768;51.476;7.210;2023-08-07T13:37:09;3.22;;;1.70;;
11422;SDS011;5768;51.476;7.210;2023-08-07T13:42:11;4.03;;;1.90;;
11422;SDS011;5768;51.476;7.210;2023-08-07T13:47:15;3.30;;;2.05;;
11422;SDS011;5768;51.476;7.210;2023-08-07T13:52:21;5.40;;;1.95;;
11422;SDS011;5768;51.476;7.210;2023-08-07T13:57:23;4.45;;;1.75;;
11422;SDS011;5768;51.476;7.210;2023-08-07T14:02:27;6.25;;;2.00;;
11422;SDS011;5768;51.476;7.210;2023-08-07T14:07:30;4.85;;;2.03;;
11422;SDS011;5768;51.476;7.210;2023-08-07T14:12:32;4.53;;;2.05;;
11422;SDS011;5768;51.476;7.210;2023-08-07T14:17:36;3.85;;;1.58;;
11422;SDS011;5768;51.476;7.210;2023-08-07T14:22:38;3.20;;;1.40;;
11422;SDS011;5768;51.476;7.210;2023-08-07T14:27:43;1.80;;;1.50;;
11422;SDS011;5768;51.476;7.210;2023-08-07T14:32:56;3.20;;;1.65;;
11422;SDS011;5768;51.476;7.210;2023-08-07T14:37:58;4.07;;;1.77;;
11422;SDS011;5768;51.476;7.210;2023-08-07T14:43:01;3.58;;;1.73;;
11422;SDS011;5768;51.476;7.210;2023-08-07T14:48:04;4.10;;;1.67;;
11422;SDS011;5768;51.476;7.210;2023-08-07T14:53:07;2.63;;;1.90;;
11422;SDS011;5768;51.476;7.210;2023-08-07T14:58:09;4.18;;;1.90;;
11422;SDS011;5768;51.476;7.210;2023-08-07T15:03:13;3.22;;;1.63;;
11422;SDS011;5768;51.476;7.210;2023-08-07T15:08:16;2.88;;;1.70;;
11422;SDS011;5768;51.476;7.210;2023-08-07T15:13:21;2.80;;;1.55;;
11422;SDS011;5768;51.476;7.210;2023-08-07T15:18:26;3.63;;;2.00;;
11422;SDS011;5768;51.476;7.210;2023-08-07T15:23:28;2.67;;;1.70;;
11422;SDS011;5768;51.476;7.210;2023-08-07T15:28:31;3.92;;;1.75;;
11422;SDS011;5768;51.476;7.210;2023-08-07T15:33:34;2.67;;;1.50;;
11422;SDS011;5768;51.476;7.210;2023-08-07T15:38:42;2.17;;;1.30;;
11422;SDS011;5768;51.476;7.210;2023-08-07T15:43:44;4.20;;;1.70;;
11422;SDS011;5768;51.476;7.210;2023-08-07T15:48:51;2.67;;;1.30;;
11422;SDS011;5768;51.476;7.210;2023-08-07T15:53:55;4.13;;;1.70;;
11422;SDS011;5768;51.476;7.210;2023-08-07T15:58:59;2.40;;;1.40;;
11422;SDS011;5768;51.476;7.210;2023-08-07T16:04:03;5.20;;;1.95;;
11422;SDS011;5768;51.476;7.210;2023-08-07T16:09:05;3.30;;;1.70;;
11422;SDS011;5768;51.476;7.210;2023-08-07T16:14:08;3.63;;;1.80;;
11422;SDS011;5768;51.476;7.210;2023-08-07T16:19:12;5.38;;;1.70;;
11422;SDS011;5768;51.476;7.210;2023-08-07T16:24:16;2.20;;;1.50;;
11422;SDS011;5768;51.476;7.210;2023-08-07T16:29:18;2.92;;;1.50;;
11422;SDS011;5768;51.476;7.210;2023-08-07T16:34:22;4.25;;;1.95;;
11422;SDS011;5768;51.476;7.210;2023-08-07T16:39:24;4.05;;;1.60;;
11422;SDS011;5768;51.476;7.210;2023-08-07T16:44:27;2.38;;;1.50;;
11422;SDS011;5768;51.476;7.210;2023-08-07T16:49:32;2.88;;;1.75;;
11422;SDS011;5768;51.476;7.210;2023-08-07T16:54:38;3.90;;;1.80;;
11422;SDS011;5768;51.476;7.210;2023-08-07T16:59:40;4.28;;;2.10;;
11422;SDS011;5768;51.476;7.210;2023-08-07T17:04:46;4.15;;;2.30;;
11422;SDS011;5768;51.476;7.210;2023-08-07T17:09:48;3.40;;;2.03;;
11422;SDS011;5768;51.476;7.210;2023-08-07T17:14:50;2.97;;;1.95;;
11422;SDS011;5768;51.476;7.210;2023-08-07T17:19:57;2.08;;;1.65;;
11422;SDS011;5768;51.476;7.210;2023-08-07T17:24:59;3.15;;;2.10;;
11422;SDS011;5768;51.476;7.210;2023-08-07T17:30:02;3.83;;;1.90;;
11422;SDS011;5768;51.476;7.210;2023-08-07T17:35:10;4.40;;;1.80;;
11422;SDS011;5768;51.476;7.210;2023-08-07T17:40:13;3.75;;;2.10;;
11422;SDS011;5768;51.476;7.210;2023-08-07T17:45:16;3.20;;;2.50;;
11422;SDS011;5768;51.476;7.210;2023-08-07T17:50:20;3.03;;;1.70;;
11422;SDS011;5768;51.476;7.210;2023-08-07T17:55:26;3.75;;;1.63;;
11422;SDS011;5768;51.476;7.210;2023-08-07T18:00:30;2.25;;;1.60;;
11422;SDS011;5768;51.476;7.210;2023-08-07T18:05:34;3.25;;;1.70;;
11422;SDS011;5768;51.476;7.210;2023-08-07T18:10:40;2.00;;;1.67;;
11422;SDS011;5768;51.476;7.210;2023-08-07T18:15:42;2.17;;;1.50;;
11422;SDS011;5768;51.476;7.210;2023-08-07T18:20:46;3.15;;;1.70;;
11422;SDS011;5768;51.476;7.210;2023-08-07T18:25:49;2.20;;;1.73;;
11422;SDS011;5768;51.476;7.210;2023-08-07T18:30:51;3.22;;;1.70;;
11422;SDS011;5768;51.476;7.210;2023-08-07T18:35:55;3.35;;;1.88;;
11422;SDS011;5768;51.476;7.210;2023-08-07T18:41:00;1.83;;;1.70;;
11422;SDS011;5768;51.476;7.210;2023-08-07T18:46:02;3.95;;;2.08;;
11422;SDS011;5768;51.476;7.210;2023-08-07T18:51:05;2.10;;;1.90;;
11422;SDS011;5768;51.476;7.210;2023-08-07T18:56:08;4.43;;;2.30;;
11422;SDS011;5768;51.476;7.210;2023-08-07T19:01:10;2.40;;;2.03;;
11422;SDS011;5768;51.476;7.210;2023-08-07T19:06:14;2.75;;;2.28;;
11422;SDS011;5768;51.476;7.210;2023-08-07T19:11:17;3.17;;;2.50;;
11422;SDS011;5768;51.476;7.210;2023-08-07T19:16:21;5.20;;;2.40;;
11422;SDS011;5768;51.476;7.210;2023-08-07T19:21:24;3.10;;;2.38;;
11422;SDS011;5768;51.476;7.210;2023-08-07T19:26:28;4.28;;;2.22;;
11422;SDS011;5768;51.476;7.210;2023-08-07T19:31:30;3.28;;;2.38;;
11422;SDS011;5768;51.476;7.210;2023-08-07T19:36:34;3.50;;;2.30;;
11422;SDS011;5768;51.476;7.210;2023-08-07T19:41:37;2.78;;;2.13;;
11422;SDS011;5768;51.476;7.210;2023-08-07T19:46:40;4.30;;;2.35;;
11422;SDS011;5768;51.476;7.210;2023-08-07T19:51:44;3.00;;;2.38;;
11422;SDS011;5768;51.476;7.210;2023-08-07T19:56:49;4.35;;;2.42;;
11422;SDS011;5768;51.476;7.210;2023-08-07T20:01:51;3.58;;;2.15;;
11422;SDS011;5768;51.476;7.210;2023-08-07T20:06:58;4.78;;;2.55;;
11422;SDS011;5768;51.476;7.210;2023-08-07T20:12:03;3.65;;;2.30;;
11422;SDS011;5768;51.476;7.210;2023-08-07T20:17:07;3.38;;;2.92;;
11422;SDS011;5768;51.476;7.210;2023-08-07T20:22:10;4.20;;;2.90;;
11422;SDS011;5768;51.476;7.210;2023-08-07T20:27:13;6.13;;;3.20;;
11422;SDS011;5768;51.476;7.210;2023-08-07T20:32:16;4.32;;;3.22;;
11422;SDS011;5768;51.476;7.210;2023-08-07T20:37:20;6.70;;;3.35;;
11422;SDS011;5768;51.476;7.210;2023-08-07T20:42:23;6.80;;;3.50;;
11422;SDS011;5768;51.476;7.210;2023-08-07T20:47:25;5.35;;;3.00;;
11422;SDS011;5768;51.476;7.210;2023-08-07T20:52:29;6.65;;;3.53;;
11422;SDS011;5768;51.476;7.210;2023-08-07T20:57:31;5.22;;;3.35;;
11422;SDS011;5768;51.476;7.210;2023-08-07T21:02:35;5.53;;;3.28;;
11422;SDS011;5768;51.476;7.210;2023-08-07T21:07:39;5.85;;;3.25;;
11422;SDS011;5768;51.476;7.210;2023-08-07T21:12:41;5.32;;;3.08;;
11422;SDS011;5768;51.476;7.210;2023-08-07T21:17:43;4.25;;;3.15;;
11422;SDS011;5768;51.476;7.210;2023-08-07T21:22:47;5.95;;;2.97;;
11422;SDS011;5768;51.476;7.210;2023-08-07T21:27:49;4.30;;;3.90;;
11422;SDS011;5768;51.476;7.210;2023-08-07T21:32:51;4.70;;;3.60;;
11422;SDS011;5768;51.476;7.210;2023-08-07T21:37:55;3.97;;;2.80;;
11422;SDS011;5768;51.476;7.210;2023-08-07T21:42:57;4.18;;;3.33;;
11422;SDS011;5768;51.476;7.210;2023-08-07T21:48:00;5.18;;;3.33;;
11422;SDS011;5768;51.476;7.210;2023-08-07T21:53:05;5.18;;;3.13;;
11422;SDS011;5768;51.476;7.210;2023-08-07T21:58:07;5.03;;;3.33;;
11422;SDS011;5768;51.476;7.210;2023-08-07T22:03:10;4.43;;;3.30;;
11422;SDS011;5768;51.476;7.210;2023-08-07T22:08:13;4.05;;;3.00;;
11422;SDS011;5768;51.476;7.210;2023-08-07T22:13:16;4.78;;;3.08;;
11422;SDS011;5768;51.476;7.210;2023-08-07T22:18:18;3.30;;;3.03;;
11422;SDS011;5768;51.476;7.210;2023-08-07T22:23:22;7.32;;;4.07;;
11422;SDS011;5768;51.476;7.210;2023-08-07T22:28:26;4.40;;;3.00;;
11422;SDS011;5768;51.476;7.210;2023-08-07T22:33:29;4.20;;;2.90;;
11422;SDS011;5768;51.476;7.210;2023-08-07T22:38:32;5.20;;;2.85;;
11422;SDS011;5768;51.476;7.210;2023-08-07T22:43:34;5.35;;;3.00;;
11422;SDS011;5768;51.476;7.210;2023-08-07T22:48:37;3.78;;;2.80;;
11422;SDS011;5768;51.476;7.210;2023-08-07T22:53:40;3.88;;;2.88;;
11422;SDS011;5768;51.476;7.210;2023-08-07T22:58:43;4.35;;;2.97;;
11422;SDS011;5768;51.476;7.210;2023-08-07T23:03:46;2.95;;;2.65;;
11422;SDS011;5768;51.476;7.210;2023-08-07T23:08:50;4.38;;;2.40;;
11422;SDS011;5768;51.476;7.210;2023-08-07T23:13:52;4.63;;;2.47;;
11422;SDS011;5768;51.476;7.210;2023-08-07T23:18:55;3.50;;;2.55;;
11422;SDS011;5768;51.476;7.210;2023-08-07T23:23:59;5.03;;;2.92;;
11422;SDS011;5768;51.476;7.210;2023-08-07T23:29:01;3.35;;;2.25;;
11422;SDS011;5768;51.476;7.210;2023-08-07T23:34:03;3.38;;;2.60;;
11422;SDS011;5768;51.476;7.210;2023-08-07T23:39:07;5.18;;;2.47;;
11422;SDS011;5768;51.476;7.210;2023-08-07T23:44:10;5.57;;;2.63;;
11422;SDS011;5768;51.476;7.210;2023-08-07T23:49:12;3.72;;;2.20;;
11422;SDS011;5768;51.476;7.210;2023-08-07T23:54:16;2.45;;;2.25;;
11422;SDS011;5768;51.476;7.210;2023-08-07T23:59:18;3.53;;;2.20;;
